Vining, IA (52348)

5:14 PM CDT on May 03, 2015 (GMT -0500)
IADOT | | Change Station
CLOSE
Current Station
Personal Weather Station
Location: Vining, IA
Elevation: 822 ft
Nearby Weather Stations

Elev 822 ft 41.96 °N, 92.30 °W | Updated 54 minutes ago

Clear
Clear
83 °F
Feels Like 84 °F
N
10
Wind Variable Wind from South
Gusts 21.0 mph

Today
High -- | Low -- °F
--% Chance of Precip.
Yesterday
High -- | Low -- °F
Precip. -- in
6:03 AM 8:10 PM
Full, 100% visible
Pressure 29.80 in
Visibility 10.0 miles
Clouds Clear
Heat Index 84 °F
Dew Point 65 °F
Humidity 53%
Rainfall in
Snow Depth Not available.
UV 4 out of 12
Pollen 10.30 out of 12
Air Quality Not available.
Flu Activity Local Activity
METAR KVTI 032155Z AUTO 19010G16KT 10SM CLR 28/13 A2980 RMK AO2 T02840130

More Conditions Fewer Conditions

Pressure 29.80 in
Visibility 10.0 miles
Clouds Clear
Heat Index 84 °F
Dew Point 65 °F
Humidity 53%
Rainfall in
Snow Depth Not available.
UV 4 out of 12
Pollen 10.30 out of 12
Air Quality Not available.
Flu Activity Local Activity
METAR KVTI 032155Z AUTO 19010G16KT 10SM CLR 28/13 A2980 RMK AO2 T02840130

More Conditions Fewer Conditions

Nepal has a long way to go to dig out and rebuild from a devastating earthquake. We have teamed up with several charities and organizations to make contributing to the relief effort as easy as possible.
How you can help: Portlight Strategies | Red Cross

10-Day Weather Forecast

Almanac

Astronomy

May. 03, 2015 Rise Set
Actual Time
Civil Twilight
Nautical Twilight
Astronomical Twilight
Moon
Length of Visible Light
Length of Day
Tomorrow will be .
, % of the Moon is Illuminated

Today's Extremes

State Highs State Lows

Community

WunderPhotos

Upload Photos

1,818,388 photos uploaded!

WunderBlogs® & News

Nearby

Air Quality

  Air Quality AQ Index Pollutant
Not available.

Snow Depth

Station Depth Elevation

Earthquake Activity

City Distance Mag. Time & Date
Minimum magnitude displayed is 2.5.

Coastal Water Temperatures

Place Temperature

Stations

Nearby Weather Stations

Station Location Temp. Windchill Dew Point Humidity Wind Precip. Elev Updated Type